sensor_id;sensor_type;location;lat;lon;timestamp;temperature;humidity
20773;DHT22;10546;50.674;4.616;2022-12-07T06:42:19;5.10;99.90
20773;DHT22;10546;50.674;4.616;2022-12-07T06:44:44;5.00;99.90
20773;DHT22;10546;50.674;4.616;2022-12-07T06:47:10;5.00;99.90
20773;DHT22;10546;50.674;4.616;2022-12-07T06:49:36;4.90;99.90
20773;DHT22;10546;50.674;4.616;2022-12-07T06:52:02;4.90;99.90
20773;DHT22;10546;50.674;4.616;2022-12-07T06:54:28;4.90;99.90
20773;DHT22;10546;50.674;4.616;2022-12-07T06:56:55;4.80;99.90
20773;DHT22;10546;50.674;4.616;2022-12-07T06:59:21;4.80;99.90
20773;DHT22;10546;50.674;4.616;2022-12-07T07:01:47;5.00;99.90
20773;DHT22;10546;50.674;4.616;2022-12-07T07:04:12;5.00;99.90
20773;DHT22;10546;50.674;4.616;2022-12-07T07:06:38;4.90;99.90
20773;DHT22;10546;50.674;4.616;2022-12-07T07:09:04;5.00;99.90
20773;DHT22;10546;50.674;4.616;2022-12-07T07:11:29;4.90;99.90
20773;DHT22;10546;50.674;4.616;2022-12-07T07:13:55;5.00;99.90
20773;DHT22;10546;50.674;4.616;2022-12-07T07:16:23;5.00;99.90
20773;DHT22;10546;50.674;4.616;2022-12-07T07:18:49;5.00;99.90
20773;DHT22;10546;50.674;4.616;2022-12-07T07:21:14;5.00;99.90
20773;DHT22;10546;50.674;4.616;2022-12-07T07:23:40;5.10;99.90
20773;DHT22;10546;50.674;4.616;2022-12-07T07:26:05;5.20;99.90
20773;DHT22;10546;50.674;4.616;2022-12-07T07:28:31;5.10;99.90
20773;DHT22;10546;50.674;4.616;2022-12-07T07:30:58;5.00;99.90
20773;DHT22;10546;50.674;4.616;2022-12-07T07:33:24;4.90;99.90
20773;DHT22;10546;50.674;4.616;2022-12-07T07:35:49;4.90;99.90
20773;DHT22;10546;50.674;4.616;2022-12-07T07:38:15;4.90;99.90
20773;DHT22;10546;50.674;4.616;2022-12-07T07:40:40;4.80;99.90
20773;DHT22;10546;50.674;4.616;2022-12-07T07:43:06;4.80;99.90
20773;DHT22;10546;50.674;4.616;2022-12-07T07:45:32;4.80;99.90
20773;DHT22;10546;50.674;4.616;2022-12-07T07:47:57;4.80;99.90
20773;DHT22;10546;50.674;4.616;2022-12-07T07:50:23;4.90;99.90
20773;DHT22;10546;50.674;4.616;2022-12-07T07:52:48;4.90;99.90
20773;DHT22;10546;50.674;4.616;2022-12-07T07:55:15;4.90;99.90
20773;DHT22;10546;50.674;4.616;2022-12-07T07:57:40;5.10;99.90
20773;DHT22;10546;50.674;4.616;2022-12-07T08:00:09;5.10;99.90
20773;DHT22;10546;50.674;4.616;2022-12-07T08:02:36;5.10;99.90
20773;DHT22;10546;50.674;4.616;2022-12-07T08:05:02;5.20;99.90
20773;DHT22;10546;50.674;4.616;2022-12-07T08:07:28;5.20;99.90
20773;DHT22;10546;50.674;4.616;2022-12-07T08:09:54;5.10;99.90
20773;DHT22;10546;50.674;4.616;2022-12-07T08:12:19;5.20;99.90
20773;DHT22;10546;50.674;4.616;2022-12-07T08:14:45;5.30;99.90
20773;DHT22;10546;50.674;4.616;2022-12-07T08:17:10;5.40;99.90
20773;DHT22;10546;50.674;4.616;2022-12-07T08:19:36;5.50;99.90
20773;DHT22;10546;50.674;4.616;2022-12-07T08:22:02;5.50;99.90
20773;DHT22;10546;50.674;4.616;2022-12-07T08:24:27;5.50;99.90
20773;DHT22;10546;50.674;4.616;2022-12-07T08:26:53;5.50;99.90
20773;DHT22;10546;50.674;4.616;2022-12-07T08:29:19;5.70;99.90
20773;DHT22;10546;50.674;4.616;2022-12-07T08:31:45;5.70;99.90
20773;DHT22;10546;50.674;4.616;2022-12-07T08:34:11;5.60;99.90
20773;DHT22;10546;50.674;4.616;2022-12-07T08:36:37;5.60;99.90
20773;DHT22;10546;50.674;4.616;2022-12-07T08:39:03;5.60;99.90
20773;DHT22;10546;50.674;4.616;2022-12-07T08:41:29;5.50;99.90
20773;DHT22;10546;50.674;4.616;2022-12-07T08:43:54;5.40;99.90
20773;DHT22;10546;50.674;4.616;2022-12-07T08:46:25;5.50;99.90
20773;DHT22;10546;50.674;4.616;2022-12-07T08:51:21;5.50;99.90
20773;DHT22;10546;50.674;4.616;2022-12-07T08:53:48;5.30;99.90
20773;DHT22;10546;50.674;4.616;2022-12-07T08:56:14;5.40;99.90
20773;DHT22;10546;50.674;4.616;2022-12-07T08:58:40;5.30;99.90
20773;DHT22;10546;50.674;4.616;2022-12-07T09:01:06;5.40;99.90
20773;DHT22;10546;50.674;4.616;2022-12-07T09:03:32;5.90;99.90
20773;DHT22;10546;50.674;4.616;2022-12-07T09:05:58;6.60;99.90
20773;DHT22;10546;50.674;4.616;2022-12-07T09:08:29;7.20;99.90
20773;DHT22;10546;50.674;4.616;2022-12-07T09:10:56;7.70;99.90
20773;DHT22;10546;50.674;4.616;2022-12-07T09:13:21;8.40;99.90
20773;DHT22;10546;50.674;4.616;2022-12-07T09:15:47;9.20;99.90
20773;DHT22;10546;50.674;4.616;2022-12-07T09:18:13;9.70;99.90
20773;DHT22;10546;50.674;4.616;2022-12-07T09:20:39;9.70;99.90
20773;DHT22;10546;50.674;4.616;2022-12-07T09:23:06;9.50;99.90
20773;DHT22;10546;50.674;4.616;2022-12-07T09:25:33;9.70;99.90
20773;DHT22;10546;50.674;4.616;2022-12-07T09:27:59;9.60;99.90
20773;DHT22;10546;50.674;4.616;2022-12-07T09:30:25;9.30;99.90
20773;DHT22;10546;50.674;4.616;2022-12-07T09:32:56;9.50;99.90
20773;DHT22;10546;50.674;4.616;2022-12-07T09:35:22;9.20;99.90
20773;DHT22;10546;50.674;4.616;2022-12-07T09:37:48;9.20;99.90
20773;DHT22;10546;50.674;4.616;2022-12-07T09:40:15;9.10;99.90
20773;DHT22;10546;50.674;4.616;2022-12-07T09:42:45;9.50;99.90
20773;DHT22;10546;50.674;4.616;2022-12-07T09:45:33;10.60;99.90
20773;DHT22;10546;50.674;4.616;2022-12-07T09:47:59;11.70;99.90
20773;DHT22;10546;50.674;4.616;2022-12-07T09:50:28;11.60;99.90
20773;DHT22;10546;50.674;4.616;2022-12-07T09:53:04;11.30;99.90
20773;DHT22;10546;50.674;4.616;2022-12-07T09:55:31;10.50;99.90
20773;DHT22;10546;50.674;4.616;2022-12-07T09:57:57;10.20;99.90
20773;DHT22;10546;50.674;4.616;2022-12-07T10:00:24;9.90;99.90
20773;DHT22;10546;50.674;4.616;2022-12-07T10:02:53;9.30;99.90
20773;DHT22;10546;50.674;4.616;2022-12-07T10:05:33;9.10;99.90
20773;DHT22;10546;50.674;4.616;2022-12-07T10:07:59;8.90;99.90
20773;DHT22;10546;50.674;4.616;2022-12-07T10:10:29;8.60;99.90
20773;DHT22;10546;50.674;4.616;2022-12-07T10:15:39;8.20;99.90
20773;DHT22;10546;50.674;4.616;2022-12-07T10:24:00;8.10;99.90
20773;DHT22;10546;50.674;4.616;2022-12-07T10:26:33;7.80;99.90
20773;DHT22;10546;50.674;4.616;2022-12-07T10:29:02;7.80;99.90
20773;DHT22;10546;50.674;4.616;2022-12-07T10:31:28;8.00;99.90
20773;DHT22;10546;50.674;4.616;2022-12-07T10:34:00;8.00;99.90
20773;DHT22;10546;50.674;4.616;2022-12-07T10:36:30;7.90;99.90
20773;DHT22;10546;50.674;4.616;2022-12-07T10:41:30;8.00;99.90
20773;DHT22;10546;50.674;4.616;2022-12-07T10:43:57;8.20;99.90
20773;DHT22;10546;50.674;4.616;2022-12-07T11:00:25;7.80;99.90
20773;DHT22;10546;50.674;4.616;2022-12-07T11:11:31;8.00;99.90
20773;DHT22;10546;50.674;4.616;2022-12-07T11:17:07;8.40;99.90
20773;DHT22;10546;50.674;4.616;2022-12-07T11:24:56;9.70;99.90
20773;DHT22;10546;50.674;4.616;2022-12-07T11:31:26;9.60;99.90
20773;DHT22;10546;50.674;4.616;2022-12-07T11:33:43;9.10;99.90
20773;DHT22;10546;50.674;4.616;2022-12-07T11:39:07;8.50;99.90
20773;DHT22;10546;50.674;4.616;2022-12-07T11:41:39;8.40;99.90
20773;DHT22;10546;50.674;4.616;2022-12-07T11:52:56;8.60;99.90
20773;DHT22;10546;50.674;4.616;2022-12-07T11:55:02;8.80;99.90
20773;DHT22;10546;50.674;4.616;2022-12-07T11:57:44;9.20;99.90
20773;DHT22;10546;50.674;4.616;2022-12-07T12:00:15;9.30;99.90
20773;DHT22;10546;50.674;4.616;2022-12-07T12:03:03;9.70;99.90
20773;DHT22;10546;50.674;4.616;2022-12-07T12:05:31;10.00;99.90
20773;DHT22;10546;50.674;4.616;2022-12-07T12:08:20;9.90;99.90
20773;DHT22;10546;50.674;4.616;2022-12-07T12:21:48;9.80;99.90
20773;DHT22;10546;50.674;4.616;2022-12-07T12:24:25;9.60;99.90
20773;DHT22;10546;50.674;4.616;2022-12-07T12:26:54;9.40;99.90
20773;DHT22;10546;50.674;4.616;2022-12-07T12:32:38;8.50;99.90
20773;DHT22;10546;50.674;4.616;2022-12-07T12:35:20;8.40;99.90
20773;DHT22;10546;50.674;4.616;2022-12-07T12:37:46;8.40;99.90
20773;DHT22;10546;50.674;4.616;2022-12-07T12:42:57;8.50;99.90
20773;DHT22;10546;50.674;4.616;2022-12-07T12:45:32;8.70;99.90
20773;DHT22;10546;50.674;4.616;2022-12-07T12:48:26;8.60;99.90
20773;DHT22;10546;50.674;4.616;2022-12-07T12:54:04;8.50;99.90
20773;DHT22;10546;50.674;4.616;2022-12-07T12:56:41;8.30;99.90
20773;DHT22;10546;50.674;4.616;2022-12-07T12:59:30;8.30;99.90
20773;DHT22;10546;50.674;4.616;2022-12-07T13:10:40;8.00;99.90
20773;DHT22;10546;50.674;4.616;2022-12-07T13:15:46;8.00;99.90
20773;DHT22;10546;50.674;4.616;2022-12-07T13:25:55;7.90;99.90
20773;DHT22;10546;50.674;4.616;2022-12-07T13:28:26;7.80;99.90
20773;DHT22;10546;50.674;4.616;2022-12-07T13:33:52;7.70;99.90
20773;DHT22;10546;50.674;4.616;2022-12-07T13:36:26;8.00;99.90
20773;DHT22;10546;50.674;4.616;2022-12-07T13:39:00;7.80;99.90
20773;DHT22;10546;50.674;4.616;2022-12-07T13:41:35;7.80;99.90
20773;DHT22;10546;50.674;4.616;2022-12-07T13:44:02;7.80;99.90
20773;DHT22;10546;50.674;4.616;2022-12-07T13:49:30;7.90;99.90
20773;DHT22;10546;50.674;4.616;2022-12-07T13:54:46;7.80;99.90
20773;DHT22;10546;50.674;4.616;2022-12-07T13:57:12;7.90;99.90
20773;DHT22;10546;50.674;4.616;2022-12-07T13:59:38;7.70;99.90
20773;DHT22;10546;50.674;4.616;2022-12-07T14:02:21;7.70;99.90
20773;DHT22;10546;50.674;4.616;2022-12-07T14:04:48;7.70;99.90
20773;DHT22;10546;50.674;4.616;2022-12-07T14:10:04;7.70;99.90
20773;DHT22;10546;50.674;4.616;2022-12-07T14:12:32;7.60;99.90
20773;DHT22;10546;50.674;4.616;2022-12-07T14:14:59;7.70;99.90
20773;DHT22;10546;50.674;4.616;2022-12-07T14:17:27;7.80;99.90
20773;DHT22;10546;50.674;4.616;2022-12-07T14:19:55;7.70;99.90
20773;DHT22;10546;50.674;4.616;2022-12-07T14:24:49;7.70;99.90
20773;DHT22;10546;50.674;4.616;2022-12-07T14:27:20;7.70;99.90
20773;DHT22;10546;50.674;4.616;2022-12-07T14:29:46;7.80;99.90
20773;DHT22;10546;50.674;4.616;2022-12-07T14:32:27;7.60;99.90
20773;DHT22;10546;50.674;4.616;2022-12-07T14:35:11;7.60;99.90
20773;DHT22;10546;50.674;4.616;2022-12-07T14:37:39;7.50;99.90
20773;DHT22;10546;50.674;4.616;2022-12-07T14:40:05;7.50;99.90
20773;DHT22;10546;50.674;4.616;2022-12-07T14:42:33;7.50;99.90
20773;DHT22;10546;50.674;4.616;2022-12-07T14:44:59;7.60;99.90
20773;DHT22;10546;50.674;4.616;2022-12-07T14:47:26;7.60;99.90
20773;DHT22;10546;50.674;4.616;2022-12-07T14:49:52;7.50;99.90
20773;DHT22;10546;50.674;4.616;2022-12-07T14:52:23;7.30;99.90
20773;DHT22;10546;50.674;4.616;2022-12-07T14:54:50;7.40;99.90
20773;DHT22;10546;50.674;4.616;2022-12-07T14:57:16;7.40;99.90
20773;DHT22;10546;50.674;4.616;2022-12-07T14:59:42;7.20;99.90
20773;DHT22;10546;50.674;4.616;2022-12-07T15:02:11;7.30;99.90
20773;DHT22;10546;50.674;4.616;2022-12-07T15:04:37;7.30;99.90
20773;DHT22;10546;50.674;4.616;2022-12-07T15:07:04;7.30;99.90
20773;DHT22;10546;50.674;4.616;2022-12-07T15:09:30;7.10;99.90
20773;DHT22;10546;50.674;4.616;2022-12-07T15:11:56;7.10;99.90
20773;DHT22;10546;50.674;4.616;2022-12-07T15:14:22;7.00;99.90
20773;DHT22;10546;50.674;4.616;2022-12-07T15:16:47;7.20;99.90
20773;DHT22;10546;50.674;4.616;2022-12-07T15:19:18;7.20;99.90
20773;DHT22;10546;50.674;4.616;2022-12-07T15:21:45;7.00;99.90
20773;DHT22;10546;50.674;4.616;2022-12-07T15:24:11;6.90;99.90
20773;DHT22;10546;50.674;4.616;2022-12-07T15:26:38;6.80;99.90
20773;DHT22;10546;50.674;4.616;2022-12-07T15:29:04;7.10;99.90
20773;DHT22;10546;50.674;4.616;2022-12-07T15:31:29;7.00;99.90
20773;DHT22;10546;50.674;4.616;2022-12-07T15:33:55;6.90;99.90
20773;DHT22;10546;50.674;4.616;2022-12-07T15:36:24;6.70;99.90
20773;DHT22;10546;50.674;4.616;2022-12-07T15:38:50;6.70;99.90
20773;DHT22;10546;50.674;4.616;2022-12-07T15:41:17;6.80;99.90
20773;DHT22;10546;50.674;4.616;2022-12-07T15:43:43;6.70;99.90
20773;DHT22;10546;50.674;4.616;2022-12-07T15:46:32;6.60;99.90
20773;DHT22;10546;50.674;4.616;2022-12-07T15:48:58;6.50;99.90
20773;DHT22;10546;50.674;4.616;2022-12-07T15:51:24;6.60;99.90
20773;DHT22;10546;50.674;4.616;2022-12-07T15:53:50;6.50;99.90
20773;DHT22;10546;50.674;4.616;2022-12-07T15:56:15;6.60;99.90
20773;DHT22;10546;50.674;4.616;2022-12-07T15:58:41;6.50;99.90
20773;DHT22;10546;50.674;4.616;2022-12-07T16:01:14;6.60;99.90
20773;DHT22;10546;50.674;4.616;2022-12-07T16:03:39;6.50;99.90
20773;DHT22;10546;50.674;4.616;2022-12-07T16:06:06;6.50;99.90
20773;DHT22;10546;50.674;4.616;2022-12-07T16:08:32;6.50;99.90
20773;DHT22;10546;50.674;4.616;2022-12-07T16:10:57;6.60;99.90
20773;DHT22;10546;50.674;4.616;2022-12-07T16:13:23;6.50;99.90
20773;DHT22;10546;50.674;4.616;2022-12-07T16:15:48;6.50;99.90
20773;DHT22;10546;50.674;4.616;2022-12-07T16:18:14;6.50;99.90
20773;DHT22;10546;50.674;4.616;2022-12-07T16:20:40;6.50;99.90
20773;DHT22;10546;50.674;4.616;2022-12-07T16:23:06;6.40;99.90
20773;DHT22;10546;50.674;4.616;2022-12-07T16:25:32;6.30;99.90
20773;DHT22;10546;50.674;4.616;2022-12-07T16:27:58;6.30;99.90
20773;DHT22;10546;50.674;4.616;2022-12-07T16:30:24;6.30;99.90
20773;DHT22;10546;50.674;4.616;2022-12-07T16:32:51;6.30;99.90
20773;DHT22;10546;50.674;4.616;2022-12-07T16:35:16;6.30;99.90
20773;DHT22;10546;50.674;4.616;2022-12-07T16:37:43;6.30;99.90
20773;DHT22;10546;50.674;4.616;2022-12-07T16:40:09;6.30;99.90
20773;DHT22;10546;50.674;4.616;2022-12-07T16:42:35;6.20;99.90
20773;DHT22;10546;50.674;4.616;2022-12-07T16:45:02;6.20;99.90
20773;DHT22;10546;50.674;4.616;2022-12-07T16:47:28;6.20;99.90
20773;DHT22;10546;50.674;4.616;2022-12-07T16:49:53;6.30;99.90
20773;DHT22;10546;50.674;4.616;2022-12-07T16:52:20;6.20;99.90
20773;DHT22;10546;50.674;4.616;2022-12-07T16:54:46;6.20;99.90
20773;DHT22;10546;50.674;4.616;2022-12-07T16:57:13;6.10;99.90
20773;DHT22;10546;50.674;4.616;2022-12-07T16:59:39;6.20;99.90
20773;DHT22;10546;50.674;4.616;2022-12-07T17:02:04;6.20;99.90
20773;DHT22;10546;50.674;4.616;2022-12-07T17:04:32;6.30;99.90
20773;DHT22;10546;50.674;4.616;2022-12-07T17:06:58;6.20;99.90
20773;DHT22;10546;50.674;4.616;2022-12-07T17:09:24;6.20;99.90
20773;DHT22;10546;50.674;4.616;2022-12-07T17:11:50;6.10;99.90
20773;DHT22;10546;50.674;4.616;2022-12-07T17:14:16;6.20;99.90
20773;DHT22;10546;50.674;4.616;2022-12-07T17:17:00;6.10;99.90
20773;DHT22;10546;50.674;4.616;2022-12-07T17:19:26;6.10;99.90
20773;DHT22;10546;50.674;4.616;2022-12-07T17:21:51;6.20;99.90
20773;DHT22;10546;50.674;4.616;2022-12-07T17:24:17;6.10;99.90
20773;DHT22;10546;50.674;4.616;2022-12-07T17:26:44;6.10;99.90
20773;DHT22;10546;50.674;4.616;2022-12-07T17:29:11;6.20;99.90
20773;DHT22;10546;50.674;4.616;2022-12-07T17:31:37;6.00;99.90
20773;DHT22;10546;50.674;4.616;2022-12-07T17:34:03;6.00;99.90
20773;DHT22;10546;50.674;4.616;2022-12-07T17:36:30;6.00;99.90
20773;DHT22;10546;50.674;4.616;2022-12-07T17:38:56;6.00;99.90
20773;DHT22;10546;50.674;4.616;2022-12-07T17:41:24;6.10;99.90
20773;DHT22;10546;50.674;4.616;2022-12-07T17:44:15;6.10;99.90
20773;DHT22;10546;50.674;4.616;2022-12-07T17:46:41;6.10;99.90
20773;DHT22;10546;50.674;4.616;2022-12-07T17:49:07;6.20;99.90
20773;DHT22;10546;50.674;4.616;2022-12-07T17:51:33;6.20;99.90
20773;DHT22;10546;50.674;4.616;2022-12-07T17:54:18;6.30;99.90
20773;DHT22;10546;50.674;4.616;2022-12-07T17:56:44;6.30;99.90
20773;DHT22;10546;50.674;4.616;2022-12-07T17:59:10;6.30;99.90
20773;DHT22;10546;50.674;4.616;2022-12-07T18:01:36;6.10;99.90
20773;DHT22;10546;50.674;4.616;2022-12-07T18:04:03;6.20;99.90
20773;DHT22;10546;50.674;4.616;2022-12-07T18:06:29;6.20;99.90
20773;DHT22;10546;50.674;4.616;2022-12-07T18:08:54;6.10;99.90
20773;DHT22;10546;50.674;4.616;2022-12-07T18:11:20;6.00;99.90
20773;DHT22;10546;50.674;4.616;2022-12-07T18:13:46;6.00;99.90
20773;DHT22;10546;50.674;4.616;2022-12-07T18:16:17;6.10;99.90
20773;DHT22;10546;50.674;4.616;2022-12-07T18:18:45;6.30;99.90
20773;DHT22;10546;50.674;4.616;2022-12-07T18:21:19;6.20;99.90
20773;DHT22;10546;50.674;4.616;2022-12-07T18:23:47;6.30;99.90
20773;DHT22;10546;50.674;4.616;2022-12-07T18:26:14;6.30;99.90
20773;DHT22;10546;50.674;4.616;2022-12-07T18:28:41;6.20;99.90
20773;DHT22;10546;50.674;4.616;2022-12-07T18:31:07;6.20;99.90
20773;DHT22;10546;50.674;4.616;2022-12-07T18:33:32;6.00;99.90
20773;DHT22;10546;50.674;4.616;2022-12-07T18:35:59;6.00;99.90
20773;DHT22;10546;50.674;4.616;2022-12-07T18:38:26;6.20;99.90
20773;DHT22;10546;50.674;4.616;2022-12-07T18:40:52;6.10;99.90
20773;DHT22;10546;50.674;4.616;2022-12-07T18:43:18;6.00;99.90
20773;DHT22;10546;50.674;4.616;2022-12-07T18:45:44;6.00;99.90
20773;DHT22;10546;50.674;4.616;2022-12-07T18:48:14;6.00;99.90
20773;DHT22;10546;50.674;4.616;2022-12-07T18:50:42;6.10;99.90
20773;DHT22;10546;50.674;4.616;2022-12-07T18:53:08;6.10;99.90
20773;DHT22;10546;50.674;4.616;2022-12-07T18:55:34;6.00;99.90
20773;DHT22;10546;50.674;4.616;2022-12-07T18:57:59;6.00;99.90
20773;DHT22;10546;50.674;4.616;2022-12-07T19:00:26;6.10;99.90
20773;DHT22;10546;50.674;4.616;2022-12-07T19:02:53;5.90;99.90
20773;DHT22;10546;50.674;4.616;2022-12-07T19:05:20;5.90;99.90
20773;DHT22;10546;50.674;4.616;2022-12-07T19:07:46;5.90;99.90
20773;DHT22;10546;50.674;4.616;2022-12-07T19:10:13;5.90;99.90
20773;DHT22;10546;50.674;4.616;2022-12-07T19:12:39;5.80;99.90
20773;DHT22;10546;50.674;4.616;2022-12-07T19:15:06;5.80;99.90
20773;DHT22;10546;50.674;4.616;2022-12-07T19:17:33;5.70;99.90
20773;DHT22;10546;50.674;4.616;2022-12-07T19:19:58;5.70;99.90
20773;DHT22;10546;50.674;4.616;2022-12-07T19:22:24;5.70;99.90
20773;DHT22;10546;50.674;4.616;2022-12-07T19:24:53;5.60;99.90
20773;DHT22;10546;50.674;4.616;2022-12-07T19:27:20;5.70;99.90
20773;DHT22;10546;50.674;4.616;2022-12-07T19:29:47;5.70;99.90
20773;DHT22;10546;50.674;4.616;2022-12-07T19:32:13;5.80;99.90
20773;DHT22;10546;50.674;4.616;2022-12-07T19:34:41;5.70;99.90
20773;DHT22;10546;50.674;4.616;2022-12-07T19:37:08;5.50;99.90
20773;DHT22;10546;50.674;4.616;2022-12-07T19:39:36;5.50;99.90
20773;DHT22;10546;50.674;4.616;2022-12-07T19:42:02;5.50;99.90
20773;DHT22;10546;50.674;4.616;2022-12-07T19:44:28;5.40;99.90
20773;DHT22;10546;50.674;4.616;2022-12-07T19:46:56;5.40;99.90
20773;DHT22;10546;50.674;4.616;2022-12-07T19:49:23;5.40;99.90
20773;DHT22;10546;50.674;4.616;2022-12-07T19:51:51;5.30;99.90
20773;DHT22;10546;50.674;4.616;2022-12-07T19:54:21;5.30;99.90
20773;DHT22;10546;50.674;4.616;2022-12-07T19:56:49;5.30;99.90
20773;DHT22;10546;50.674;4.616;2022-12-07T19:59:15;5.20;99.90
20773;DHT22;10546;50.674;4.616;2022-12-07T20:01:42;5.30;99.90
20773;DHT22;10546;50.674;4.616;2022-12-07T20:04:17;5.10;99.90
20773;DHT22;10546;50.674;4.616;2022-12-07T20:06:51;5.10;99.90
20773;DHT22;10546;50.674;4.616;2022-12-07T20:09:17;5.10;99.90
20773;DHT22;10546;50.674;4.616;2022-12-07T20:11:43;5.10;99.90
20773;DHT22;10546;50.674;4.616;2022-12-07T20:14:27;5.10;99.90
20773;DHT22;10546;50.674;4.616;2022-12-07T20:16:53;5.20;99.90
20773;DHT22;10546;50.674;4.616;2022-12-07T20:19:19;5.20;99.90
20773;DHT22;10546;50.674;4.616;2022-12-07T20:21:51;5.10;99.90
20773;DHT22;10546;50.674;4.616;2022-12-07T20:24:32;5.20;99.90
20773;DHT22;10546;50.674;4.616;2022-12-07T20:26:59;5.10;99.90
20773;DHT22;10546;50.674;4.616;2022-12-07T20:29:25;5.20;99.90
20773;DHT22;10546;50.674;4.616;2022-12-07T20:31:52;5.20;99.90
20773;DHT22;10546;50.674;4.616;2022-12-07T20:34:18;5.20;99.90
20773;DHT22;10546;50.674;4.616;2022-12-07T20:36:46;5.30;99.90
20773;DHT22;10546;50.674;4.616;2022-12-07T20:39:12;5.20;99.90
20773;DHT22;10546;50.674;4.616;2022-12-07T20:41:38;5.10;99.90
20773;DHT22;10546;50.674;4.616;2022-12-07T20:44:23;5.30;99.90
20773;DHT22;10546;50.674;4.616;2022-12-07T20:46:48;5.30;99.90
20773;DHT22;10546;50.674;4.616;2022-12-07T20:49:14;5.20;99.90
20773;DHT22;10546;50.674;4.616;2022-12-07T20:51:42;5.30;99.90
20773;DHT22;10546;50.674;4.616;2022-12-07T20:54:12;5.30;99.90
20773;DHT22;10546;50.674;4.616;2022-12-07T20:56:56;5.30;99.90
20773;DHT22;10546;50.674;4.616;2022-12-07T20:59:22;5.20;99.90
20773;DHT22;10546;50.674;4.616;2022-12-07T21:01:48;5.20;99.90
20773;DHT22;10546;50.674;4.616;2022-12-07T21:04:14;5.40;99.90
20773;DHT22;10546;50.674;4.616;2022-12-07T21:06:42;5.50;99.90
20773;DHT22;10546;50.674;4.616;2022-12-07T21:09:34;5.20;99.90
20773;DHT22;10546;50.674;4.616;2022-12-07T21:11:59;5.20;99.90
20773;DHT22;10546;50.674;4.616;2022-12-07T21:14:25;5.30;99.90
20773;DHT22;10546;50.674;4.616;2022-12-07T21:16:51;5.30;99.90
20773;DHT22;10546;50.674;4.616;2022-12-07T21:19:16;5.50;99.90
20773;DHT22;10546;50.674;4.616;2022-12-07T21:21:42;5.50;99.90
20773;DHT22;10546;50.674;4.616;2022-12-07T21:24:09;5.60;99.90
20773;DHT22;10546;50.674;4.616;2022-12-07T21:26:36;5.60;99.90
20773;DHT22;10546;50.674;4.616;2022-12-07T21:29:06;5.30;99.90
20773;DHT22;10546;50.674;4.616;2022-12-07T21:31:35;5.40;99.90
20773;DHT22;10546;50.674;4.616;2022-12-07T21:34:02;5.10;99.90
20773;DHT22;10546;50.674;4.616;2022-12-07T21:36:28;5.40;99.90
20773;DHT22;10546;50.674;4.616;2022-12-07T21:38:54;5.30;99.90
20773;DHT22;10546;50.674;4.616;2022-12-07T21:41:36;5.30;99.90
20773;DHT22;10546;50.674;4.616;2022-12-07T21:44:06;5.10;99.90
20773;DHT22;10546;50.674;4.616;2022-12-07T21:46:33;5.00;99.90
20773;DHT22;10546;50.674;4.616;2022-12-07T21:49:01;5.00;99.90
20773;DHT22;10546;50.674;4.616;2022-12-07T21:51:28;5.10;99.90
20773;DHT22;10546;50.674;4.616;2022-12-07T21:53:58;5.10;99.90
20773;DHT22;10546;50.674;4.616;2022-12-07T21:56:33;5.10;99.90
20773;DHT22;10546;50.674;4.616;2022-12-07T21:59:11;5.10;99.90
20773;DHT22;10546;50.674;4.616;2022-12-07T22:01:41;5.20;99.90
20773;DHT22;10546;50.674;4.616;2022-12-07T22:04:14;5.00;99.90
20773;DHT22;10546;50.674;4.616;2022-12-07T22:06:42;5.10;99.90
20773;DHT22;10546;50.674;4.616;2022-12-07T22:09:08;5.00;99.90
20773;DHT22;10546;50.674;4.616;2022-12-07T22:11:34;5.00;99.90
20773;DHT22;10546;50.674;4.616;2022-12-07T22:14:01;5.00;99.90
20773;DHT22;10546;50.674;4.616;2022-12-07T22:16:45;5.00;99.90
